.
WxDataArchive / Data Records for 2015-01-28
2015-01-27 January 2015 2015-01-29

Data Records for Wednesday, 28 January 2015

Time	Temp	Chill	HIndex	Humid	Dewpt	 Wind 	HiWind	WindDir	Rain 	Barom
-----	----	-----	------	-----	-----	------	------	-------	-----	-----
00:00	9.9	9.9	9.9	82	5.5	0	0	---	0.00	30.280 
00:05	9.7	9.7	9.7	82	5.3	0	0	---	0.00	30.280 
00:10	9.7	9.7	9.7	83	5.6	0	0	---	0.00	30.280 
00:15	9.5	9.5	9.5	83	5.4	0	0	---	0.00	30.281 
00:20	9.3	9.3	9.3	83	5.2	0	0	---	0.00	30.281 
00:25	9.3	9.3	9.3	83	5.2	0	0	---	0.00	30.281 
00:30	9.3	9.3	9.3	83	5.2	0	0	---	0.00	30.283 
00:35	9.3	9.3	9.3	83	5.2	0	0	---	0.00	30.283 
00:40	9.5	9.5	9.5	84	5.7	0	0	---	0.00	30.283 
00:45	9.5	9.5	9.5	84	5.7	0	0	---	0.00	30.287 
00:50	9.3	9.3	9.3	84	5.5	0	0	---	0.00	30.287 
00:55	9.3	9.3	9.3	84	5.5	0	0	---	0.00	30.287 
01:00	9.0	9.0	9.0	83	4.9	0	0	---	0.00	30.290 
01:05	9.0	9.0	9.0	84	5.2	0	0	---	0.00	30.290 
01:10	8.8	8.8	8.8	84	5.0	0	0	---	0.00	30.290 
01:15	8.6	8.6	8.6	84	4.8	0	0	---	0.00	30.289 
01:20	8.6	8.6	8.6	84	4.8	0	0	---	0.00	30.289 
01:25	8.8	8.8	8.8	84	5.0	0	0	---	0.00	30.289 
01:30	8.8	8.8	8.8	84	5.0	0	0	---	0.00	30.296 
01:35	8.8	8.8	8.8	84	5.0	0	0	---	0.00	30.296 
01:40	8.6	8.6	8.6	84	4.8	0	0	---	0.00	30.296 
01:45	8.4	8.4	8.4	84	4.6	0	0	---	0.00	30.296 
01:50	8.3	8.3	8.3	84	4.5	0	0	---	0.00	30.296 
01:55	8.3	8.3	8.3	84	4.5	0	0	---	0.00	30.296 
02:00	8.1	8.1	8.1	84	4.3	0	0	---	0.00	30.293 
02:05	7.9	7.9	7.9	84	4.1	0	0	---	0.00	30.293 
02:10	8.1	8.1	8.1	84	4.3	0	0	---	0.00	30.293 
02:15	8.1	8.1	8.1	84	4.3	0	0	---	0.00	30.301 
02:20	8.1	8.1	8.1	84	4.3	0	0	---	0.00	30.301 
02:25	8.1	8.1	8.1	84	4.3	0	0	---	0.00	30.301 
02:30	8.1	8.1	8.1	84	4.3	0	0	---	0.00	30.304 
02:35	8.1	8.1	8.1	84	4.3	0	0	---	0.00	30.304 
02:40	8.1	8.1	8.1	84	4.3	0	0	---	0.00	30.304 
02:45	8.1	8.1	8.1	84	4.3	0	0	---	0.00	30.308 
02:50	8.1	8.1	8.1	84	4.3	0	0	---	0.00	30.308 
02:55	8.1	8.1	8.1	84	4.3	0	0	---	0.00	30.308 
03:00	8.1	8.1	8.1	84	4.3	0	0	---	0.00	30.309 
03:05	8.1	8.1	8.1	84	4.3	0	0	---	0.00	30.309 
03:10	8.1	8.1	8.1	84	4.3	0	0	---	0.00	30.309 
03:15	8.3	8.3	8.3	84	4.5	0	0	---	0.00	30.320 
03:20	8.3	8.3	8.3	84	4.5	0	0	---	0.00	30.320 
03:25	8.1	8.1	8.1	84	4.3	0	0	---	0.00	30.320 
03:30	8.1	8.1	8.1	84	4.3	0	0	---	0.00	30.324 
03:35	8.1	8.1	8.1	84	4.3	0	0	---	0.00	30.324 
03:40	7.9	7.9	7.9	84	4.1	0	0	---	0.00	30.324 
03:45	7.7	7.7	7.7	84	3.9	0	0	---	0.00	30.330 
03:50	7.7	7.7	7.7	84	3.9	0	0	---	0.00	30.330 
03:55	7.9	7.9	7.9	84	4.1	0	0	---	0.00	30.330 
04:00	7.7	7.7	7.7	84	3.9	0	0	---	0.00	30.338 
04:05	7.7	7.7	7.7	84	3.9	0	0	---	0.00	30.338 
04:10	7.7	7.7	7.7	84	3.9	0	0	---	0.00	30.338 
04:15	7.6	7.6	7.6	84	3.8	0	0	---	0.00	30.337 
04:20	7.6	7.6	7.6	84	3.8	0	0	---	0.00	30.337 
04:25	7.4	7.4	7.4	84	3.6	0	0	---	0.00	30.337 
04:30	7.0	7.0	7.0	84	3.2	0	0	---	0.00	30.345 
04:35	7.0	7.0	7.0	84	3.2	0	0	---	0.00	30.345 
04:40	7.0	7.0	7.0	84	3.2	0	0	---	0.00	30.345 
04:45	7.0	7.0	7.0	84	3.2	0	0	---	0.00	30.352 
04:50	7.0	7.0	7.0	84	3.2	0	0	---	0.00	30.352 
04:55	6.9	6.9	6.9	84	3.1	0	0	---	0.00	30.352 
05:00	6.9	6.9	6.9	84	3.1	0	0	---	0.00	30.353 
05:05	6.9	6.9	6.9	84	3.1	0	0	---	0.00	30.353 
05:10	6.9	6.9	6.9	84	3.1	0	0	---	0.00	30.353 
05:15	6.7	6.7	6.7	84	2.9	0	0	---	0.00	30.355 
05:20	6.5	6.5	6.5	84	2.7	0	0	---	0.00	30.355 
05:25	6.5	6.5	6.5	84	2.7	0	0	---	0.00	30.355 
05:30	6.3	6.3	6.3	84	2.5	0	0	---	0.00	30.356 
05:35	6.3	6.3	6.3	84	2.5	0	0	---	0.00	30.356 
05:40	6.1	6.1	6.1	84	2.3	0	0	---	0.00	30.356 
05:45	6.0	6.0	6.0	84	2.2	0	0	---	0.00	30.355 
05:50	5.8	5.8	5.8	84	2.0	0	0	---	0.00	30.355 
05:55	6.0	6.0	6.0	84	2.2	0	0	---	0.00	30.355 
06:00	5.8	5.8	5.8	84	2.0	0	0	---	0.00	30.357 
06:05	5.8	5.8	5.8	84	2.0	0	0	---	0.00	30.357 
06:10	5.8	5.8	5.8	84	2.0	0	0	---	0.00	30.357 
06:15	5.8	5.8	5.8	84	2.0	0	0	---	0.00	30.360 
06:20	5.8	5.8	5.8	84	2.0	0	0	---	0.00	30.360 
06:25	5.8	5.8	5.8	84	2.0	0	0	---	0.00	30.360 
06:30	5.8	5.8	5.8	84	2.0	0	0	---	0.00	30.367 
06:35	5.8	5.8	5.8	84	2.0	0	0	---	0.00	30.367 
06:40	5.8	5.8	5.8	84	2.0	0	0	---	0.00	30.367 
06:45	6.0	6.0	6.0	84	2.2	0	0	---	0.00	30.375 
06:50	6.0	6.0	6.0	84	2.2	0	0	---	0.00	30.375 
06:55	6.0	6.0	6.0	84	2.2	0	0	---	0.00	30.375 
07:00	6.0	6.0	6.0	84	2.2	0	0	---	0.00	30.374 
07:05	6.0	6.0	6.0	84	2.2	0	0	---	0.00	30.374 
07:10	5.8	5.8	5.8	84	2.0	0	0	---	0.00	30.374 
07:15	5.8	5.8	5.8	84	2.0	0	0	---	0.00	30.377 
07:20	5.8	5.8	5.8	84	2.0	0	0	---	0.00	30.377 
07:25	5.8	5.8	5.8	84	2.0	0	0	---	0.00	30.377 
07:30	5.8	5.8	5.8	84	2.0	0	0	---	0.00	30.378 
07:35	5.6	5.6	5.6	84	1.8	0	0	---	0.00	30.378 
07:40	5.6	5.6	5.6	84	1.8	0	0	---	0.00	30.378 
07:45	5.6	5.6	5.6	84	1.8	0	0	---	0.00	30.384 
07:50	5.8	5.8	5.8	84	2.0	0	0	---	0.00	30.384 
07:55	5.8	5.8	5.8	84	2.0	0	0	---	0.00	30.384 
08:00	5.8	5.8	5.8	84	2.0	0	0	---	0.00	30.394 
08:05	5.8	5.8	5.8	84	2.0	0	0	---	0.00	30.394 
08:10	5.8	5.8	5.8	84	2.0	0	0	---	0.00	30.394 
08:15	5.8	5.8	5.8	84	2.0	0	0	---	0.00	30.398 
08:20	5.8	5.8	5.8	84	2.0	0	0	---	0.00	30.398 
08:25	6.0	6.0	6.0	84	2.2	0	0	---	0.00	30.398 
08:30	6.3	6.3	6.3	85	2.8	0	0	---	0.00	30.400 
08:35	6.9	6.9	6.9	85	3.4	0	0	---	0.00	30.400 
08:40	7.6	7.6	7.6	85	4.1	0	0	---	0.00	30.400 
08:45	8.6	8.6	8.6	87	5.5	0	0	---	0.00	30.403 
08:50	10.4	10.4	10.4	88	7.6	0	0	---	0.00	30.403 
08:55	11.7	11.7	11.7	87	8.6	0	0	---	0.00	30.403 
09:00	12.8	12.8	12.8	86	9.4	0	0	---	0.00	30.397 
09:05	13.1	13.1	13.1	84	9.2	0	0	---	0.00	30.397 
09:10	13.1	13.1	13.1	84	9.2	0	0	---	0.00	30.397 
09:15	13.3	13.3	13.3	84	9.4	0	0	---	0.00	30.407 
09:20	13.6	13.6	13.6	84	9.7	0	0	---	0.00	30.407 
09:25	14.0	14.0	14.0	84	10.1	0	1	292	0.00	30.407 
09:30	14.6	14.6	14.6	84	10.7	0	1	292	0.00	30.398 
09:35	15.4	15.4	15.4	83	11.2	0	2	292	0.00	30.398 
09:40	15.9	15.9	15.9	82	11.4	0	1	292	0.00	30.398 
09:45	16.5	16.5	16.5	81	11.7	0	2	292	0.00	30.403 
09:50	17.0	17.0	17.0	80	11.9	0	1	292	0.00	30.403 
09:55	17.8	17.8	17.8	79	12.4	0	0	---	0.00	30.403 
10:00	18.3	18.3	18.3	76	12.0	0	2	292	0.00	30.401 
10:05	18.4	18.4	18.4	75	11.8	0	2	292	0.00	30.401 
10:10	18.4	18.4	18.4	75	11.8	0	2	292	0.00	30.401 
10:15	18.6	18.6	18.6	75	12.0	0	1	292	0.00	30.399 
10:20	18.9	18.9	18.9	74	12.0	0	2	292	0.00	30.399 
10:25	19.2	19.2	19.2	73	12.0	1	3	292	0.00	30.399 
10:30	19.5	19.5	19.5	72	12.0	1	4	315	0.00	30.396 
10:35	19.7	19.7	19.7	72	12.2	1	3	90	0.00	30.396 
10:40	20.0	20.0	20.0	71	12.1	1	2	90	0.00	30.396 
10:45	20.3	20.3	20.3	69	11.8	0	2	90	0.00	30.394 
10:50	20.5	20.5	20.5	68	11.6	1	4	90	0.00	30.394 
10:55	20.6	20.6	20.6	68	11.7	1	2	90	0.00	30.394 
11:00	21.0	21.0	21.0	67	11.8	1	3	90	0.00	30.387 
11:05	21.1	21.1	21.1	66	11.5	1	4	135	0.00	30.387 
11:10	21.3	21.3	21.3	66	11.7	1	4	135	0.00	30.387 
11:15	21.4	21.4	21.4	66	11.8	2	6	90	0.00	30.384 
11:20	21.4	21.4	21.4	65	11.5	1	4	90	0.00	30.384 
11:25	21.6	21.6	21.6	63	11.0	1	4	68	0.00	30.384 
11:30	21.8	21.8	21.8	63	11.2	1	5	90	0.00	30.372 
11:35	21.9	21.9	21.9	62	10.9	1	4	112	0.00	30.372 
11:40	22.1	22.1	22.1	62	11.1	1	3	112	0.00	30.372 
11:45	22.4	22.4	22.4	62	11.4	2	6	112	0.00	30.371 
11:50	22.4	22.4	22.4	62	11.4	1	4	112	0.00	30.371 
11:55	22.7	22.7	22.7	62	11.7	1	5	112	0.00	30.371 
12:00	22.9	22.9	22.9	62	11.9	2	5	90	0.00	30.367 
12:05	23.0	23.0	23.0	62	11.9	1	7	112	0.00	30.367 
12:10	23.0	23.0	23.0	62	11.9	2	7	90	0.00	30.367 
12:15	23.3	23.3	23.3	63	12.6	1	3	112	0.00	30.363 
12:20	23.6	23.6	23.6	64	13.2	1	4	112	0.00	30.363 
12:25	23.8	23.8	23.8	64	13.4	2	4	112	0.00	30.363 
12:30	24.1	24.1	24.1	63	13.4	1	4	112	0.00	30.356 
12:35	24.1	24.1	24.1	63	13.4	1	4	90	0.00	30.356 
12:40	24.1	24.1	24.1	63	13.4	1	6	112	0.00	30.356 
12:45	23.8	23.8	23.8	63	13.1	3	7	90	0.00	30.355 
12:50	23.8	23.8	23.8	63	13.1	2	6	90	0.00	30.355 
12:55	23.9	23.9	23.9	62	12.8	2	5	90	0.00	30.355 
13:00	23.9	23.9	23.9	62	12.8	2	6	68	0.00	30.350 
13:05	24.1	24.1	24.1	62	13.0	3	9	90	0.00	30.350 
13:10	23.9	23.9	23.9	61	12.4	3	7	112	0.00	30.350 
13:15	23.9	23.9	23.9	62	12.8	2	9	90	0.00	30.338 
13:20	24.4	24.4	24.4	62	13.3	2	6	112	0.00	30.338 
13:25	24.7	24.7	24.7	62	13.6	2	7	112	0.00	30.338 
13:30	25.0	25.0	25.0	61	13.5	1	4	90	0.00	30.331 
13:35	25.0	25.0	25.0	60	13.1	2	6	90	0.00	30.331 
13:40	25.1	25.1	25.1	60	13.2	1	4	90	0.00	30.331 
13:45	25.3	25.3	25.3	61	13.8	1	4	90	0.00	30.329 
13:50	25.4	25.4	25.4	59	13.1	1	4	90	0.00	30.329 
13:55	25.3	25.3	25.3	61	13.8	2	5	90	0.00	30.329 
14:00	25.3	25.3	25.3	61	13.8	1	4	90	0.00	30.321 
14:05	25.3	25.3	25.3	61	13.8	3	6	90	0.00	30.321 
14:10	25.4	25.4	25.4	62	14.2	2	6	90	0.00	30.321 
14:15	25.4	25.4	25.4	62	14.2	1	5	90	0.00	30.306 
14:20	25.7	25.7	25.7	61	14.1	0	4	90	0.00	30.306 
14:25	26.0	26.0	26.0	61	14.4	0	3	90	0.00	30.306 
14:30	26.0	26.0	26.0	60	14.0	2	4	90	0.00	30.302 
14:35	25.8	25.8	25.8	61	14.2	1	6	112	0.00	30.302 
14:40	26.1	26.1	26.1	60	14.1	1	4	112	0.00	30.302 
14:45	26.3	26.3	26.3	60	14.3	0	3	112	0.00	30.300 
14:50	26.4	26.4	26.4	59	14.0	1	4	112	0.00	30.300 
14:55	26.6	26.6	26.6	58	13.8	1	3	135	0.00	30.300 
15:00	26.6	26.6	26.6	57	13.4	2	7	112	0.00	30.289 
15:05	26.3	26.3	26.3	56	12.8	2	5	112	0.00	30.289 
15:10	26.3	26.3	26.3	55	12.4	1	5	90	0.00	30.289 
15:15	26.3	26.3	26.3	56	12.8	1	5	112	0.00	30.287 
15:20	26.4	26.4	26.4	55	12.5	1	4	112	0.00	30.287 
15:25	26.4	26.4	26.4	55	12.5	1	3	112	0.00	30.287 
15:30	26.4	26.4	26.4	56	12.9	1	4	135	0.00	30.287 
15:35	26.4	26.4	26.4	56	12.9	0	2	112	0.00	30.287 
15:40	26.4	26.4	26.4	57	13.3	2	7	135	0.00	30.287 
15:45	26.4	26.4	26.4	56	12.9	1	4	135	0.00	30.285 
15:50	26.4	26.4	26.4	56	12.9	1	5	112	0.00	30.285 
15:55	26.4	26.4	26.4	57	13.3	1	3	112	0.00	30.285 
16:00	26.6	26.6	26.6	56	13.0	1	3	90	0.00	30.284 
16:05	26.6	26.6	26.6	56	13.0	1	5	112	0.00	30.284 
16:10	26.6	26.6	26.6	57	13.4	1	3	112	0.00	30.284 
16:15	26.6	26.6	26.6	57	13.4	1	6	90	0.00	30.279 
16:20	26.7	26.7	26.7	57	13.5	1	3	112	0.00	30.279 
16:25	26.7	26.7	26.7	58	13.9	1	4	112	0.00	30.279 
16:30	26.7	26.7	26.7	58	13.9	1	2	112	0.00	30.272 
16:35	26.7	26.7	26.7	59	14.3	1	4	112	0.00	30.272 
16:40	26.7	26.7	26.7	59	14.3	0	4	135	0.00	30.272 
16:45	26.7	26.7	26.7	59	14.3	0	3	112	0.00	30.273 
16:50	26.7	26.7	26.7	59	14.3	0	3	112	0.00	30.273 
16:55	26.6	26.6	26.6	59	14.2	1	3	90	0.00	30.273 
17:00	26.6	26.6	26.6	61	15.0	0	2	90	0.00	30.266 
17:05	26.4	26.4	26.4	60	14.4	1	3	90	0.00	30.266 
17:10	26.3	26.3	26.3	61	14.7	0	3	112	0.00	30.266 
17:15	26.0	26.0	26.0	62	14.8	1	4	112	0.00	30.267 
17:20	25.8	25.8	25.8	63	15.0	0	3	112	0.00	30.267 
17:25	25.6	25.6	25.6	63	14.8	0	3	112	0.00	30.267 
17:30	25.4	25.4	25.4	64	14.9	0	2	112	0.00	30.250 
17:35	25.3	25.3	25.3	64	14.9	1	3	112	0.00	30.250 
17:40	25.1	25.1	25.1	64	14.7	0	3	112	0.00	30.250 
17:45	25.0	25.0	25.0	64	14.6	0	3	112	0.00	30.250 
17:50	24.8	24.8	24.8	65	14.7	1	3	112	0.00	30.250 
17:55	24.7	24.7	24.7	65	14.6	0	2	135	0.00	30.250 
18:00	24.7	24.7	24.7	65	14.6	0	2	90	0.00	30.247 
18:05	24.5	24.5	24.5	65	14.4	1	4	90	0.00	30.247 
18:10	24.4	24.4	24.4	66	14.7	1	2	90	0.00	30.247 
18:15	24.4	24.4	24.4	66	14.7	0	2	112	0.00	30.245 
18:20	24.2	24.2	24.2	67	14.8	0	1	112	0.00	30.245 
18:25	24.2	24.2	24.2	68	15.2	0	3	112	0.00	30.245 
18:30	24.1	24.1	24.1	68	15.1	1	5	112	0.00	30.244 
18:35	24.1	24.1	24.1	68	15.1	1	4	112	0.00	30.244 
18:40	24.1	24.1	24.1	68	15.1	2	5	112	0.00	30.244 
18:45	24.1	24.1	24.1	69	15.4	1	5	112	0.00	30.236 
18:50	23.9	23.9	23.9	69	15.2	0	3	112	0.00	30.236 
18:55	23.9	23.9	23.9	69	15.2	0	1	112	0.00	30.236 
19:00	23.8	23.8	23.8	69	15.1	0	2	112	0.00	30.236 
19:05	23.8	23.8	23.8	70	15.5	0	2	112	0.00	30.236 
19:10	23.8	23.8	23.8	70	15.5	0	2	112	0.00	30.236 
19:15	23.8	23.8	23.8	71	15.8	1	3	112	0.00	30.220 
19:20	23.8	23.8	23.8	71	15.8	0	2	112	0.00	30.220 
19:25	23.8	23.8	23.8	71	15.8	0	2	135	0.00	30.220 
19:30	23.8	23.8	23.8	72	16.1	1	3	68	0.00	30.214 
19:35	23.8	23.8	23.8	71	15.8	1	4	112	0.00	30.214 
19:40	23.8	23.8	23.8	71	15.8	1	4	135	0.00	30.214 
19:45	23.8	23.8	23.8	72	16.1	0	4	112	0.00	30.209 
19:50	23.8	23.8	23.8	72	16.1	1	3	112	0.00	30.209 
19:55	23.8	23.8	23.8	72	16.1	1	3	90	0.00	30.209 
20:00	23.8	23.8	23.8	71	15.8	1	4	112	0.00	30.200 
20:05	23.8	23.8	23.8	71	15.8	0	2	90	0.00	30.200 
20:10	23.9	23.9	23.9	71	15.9	2	5	112	0.00	30.200 
20:15	23.9	23.9	23.9	70	15.6	1	5	112	0.00	30.187 
20:20	23.9	23.9	23.9	70	15.6	2	5	112	0.00	30.187 
20:25	24.1	24.1	24.1	70	15.8	1	6	90	0.00	30.187 
20:30	24.1	24.1	24.1	70	15.8	0	3	112	0.00	30.182 
20:35	23.9	23.9	23.9	70	15.6	1	4	90	0.00	30.182 
20:40	23.9	23.9	23.9	70	15.6	0	3	68	0.00	30.182 
20:45	23.9	23.9	23.9	71	15.9	1	4	90	0.00	30.173 
20:50	23.9	23.9	23.9	71	15.9	0	2	90	0.00	30.173 
20:55	23.9	23.9	23.9	71	15.9	1	5	112	0.00	30.173 
21:00	23.9	23.9	23.9	71	15.9	1	2	135	0.00	30.174 
21:05	23.9	23.9	23.9	71	15.9	1	4	112	0.00	30.174 
21:10	24.1	24.1	24.1	71	16.1	1	4	112	0.00	30.174 
21:15	24.1	24.1	24.1	72	16.4	0	3	112	0.00	30.154 
21:20	24.1	24.1	24.1	72	16.4	1	3	112	0.00	30.154 
21:25	24.1	24.1	24.1	72	16.4	1	3	112	0.00	30.154 
21:30	24.2	24.2	24.2	72	16.5	0	2	112	0.00	30.142 
21:35	24.4	24.4	24.4	72	16.7	1	3	90	0.00	30.142 
21:40	24.5	24.5	24.5	73	17.1	1	3	112	0.00	30.142 
21:45	24.7	24.7	24.7	73	17.3	0	3	112	0.00	30.132 
21:50	24.7	24.7	24.7	73	17.3	1	5	112	0.00	30.132 
21:55	24.8	24.8	24.8	73	17.4	0	3	68	0.00	30.132 
22:00	25.0	25.0	25.0	73	17.6	1	4	112	0.00	30.116 
22:05	25.1	25.1	25.1	73	17.7	1	5	112	0.00	30.116 
22:10	25.3	25.3	25.3	73	17.9	1	4	90	0.00	30.116 
22:15	25.4	25.4	25.4	73	18.0	1	3	112	0.00	30.102 
22:20	25.6	25.6	25.6	73	18.2	1	5	112	0.00	30.102 
22:25	25.7	25.7	25.7	73	18.3	1	3	112	0.00	30.102 
22:30	25.8	25.8	25.8	73	18.4	2	4	90	0.00	30.089 
22:35	26.0	26.0	26.0	73	18.6	1	3	112	0.00	30.089 
22:40	26.1	26.1	26.1	73	18.7	1	4	135	0.00	30.089 
22:45	26.1	26.1	26.1	73	18.7	1	5	112	0.00	30.086 
22:50	26.3	26.3	26.3	73	18.8	2	5	90	0.00	30.086 
22:55	26.4	26.4	26.4	73	18.9	1	4	90	0.00	30.086 
23:00	26.6	26.6	26.6	72	18.8	1	4	112	0.00	30.074 
23:05	26.7	26.7	26.7	72	18.9	2	5	112	0.00	30.074 
23:10	26.9	26.9	26.9	72	19.1	1	5	112	0.00	30.074 
23:15	26.9	26.9	26.9	72	19.1	1	3	112	0.00	30.071 
23:20	26.9	26.9	26.9	72	19.1	1	6	112	0.00	30.071 
23:25	27.0	27.0	27.0	72	19.2	1	3	90	0.00	30.071 
23:30	27.0	27.0	27.0	72	19.2	1	4	112	0.00	30.070 
23:35	27.0	27.0	27.0	71	18.9	1	4	112	0.00	30.070 
23:40	27.0	27.0	27.0	71	18.9	0	5	112	0.00	30.070 
23:45	27.0	27.0	27.0	72	19.2	1	4	112	0.00	30.066 
23:50	27.2	27.2	27.2	71	19.1	1	3	135	0.00	30.066 
23:55	27.2	27.2	27.2	72	19.4	0	3	135	0.00	30.066 

CoCoRaHS
IN-AL-39
A2 Web Hosting
Creative Commons License
GoDaddy
search engine by freefind advanced

loaded 2018-11-13 21:15:42 • last modified 2010-11-18 10:43:29
Privacy PolicyDisclaimer
• wx.awcolley.com is powered by PmWiki v.2002016 •
• all content (unless otherwise noted) © 2018 A W Colley